createdAt,value
2022-09-29T00:01:31.474Z,100.00
2022-09-29T00:04:16.578Z,100.00
2022-09-29T00:07:01.518Z,100.00
2022-09-29T00:09:47.084Z,100.00
2022-09-29T00:12:31.980Z,100.00
2022-09-29T00:15:16.986Z,100.00
2022-09-29T00:18:13.793Z,100.00
2022-09-29T00:21:04.186Z,100.00
2022-09-29T00:23:50.554Z,100.00
2022-09-29T00:26:35.604Z,100.00
2022-09-29T00:29:20.694Z,100.00
2022-09-29T00:32:05.811Z,100.00
2022-09-29T00:34:50.914Z,100.00
2022-09-29T00:37:36.924Z,100.00
2022-09-29T00:40:22.071Z,100.00
2022-09-29T00:43:19.411Z,100.00
2022-09-29T00:46:04.585Z,100.00
2022-09-29T00:48:50.089Z,100.00
2022-09-29T00:51:38.170Z,100.00
2022-09-29T00:54:27.014Z,100.00
2022-09-29T00:57:15.884Z,100.00
2022-09-29T01:00:00.854Z,100.00
2022-09-29T01:02:51.988Z,100.00
2022-09-29T01:05:40.472Z,100.00
2022-09-29T01:08:33.944Z,100.00
2022-09-29T01:11:21.762Z,100.00
2022-09-29T01:14:09.458Z,100.00
2022-09-29T01:16:54.832Z,100.00
2022-09-29T01:20:04.610Z,100.00
2022-09-29T01:23:35.016Z,100.00
2022-09-29T01:26:47.759Z,100.00
2022-09-29T01:29:51.026Z,100.00
2022-09-29T01:33:01.343Z,100.00
2022-09-29T01:36:25.362Z,100.00
2022-09-29T01:39:30.655Z,100.00
2022-09-29T01:42:32.604Z,100.00
2022-09-29T01:45:27.116Z,100.00
2022-09-29T01:48:19.652Z,100.00
2022-09-29T01:51:10.021Z,100.00
2022-09-29T01:54:00.581Z,100.00
2022-09-29T01:56:54.646Z,100.00
2022-09-29T01:59:49.265Z,100.00
2022-09-29T02:02:37.665Z,100.00
2022-09-29T02:05:30.607Z,100.00
2022-09-29T02:08:27.645Z,100.00
2022-09-29T02:11:13.986Z,100.00
2022-09-29T02:14:07.306Z,100.00
2022-09-29T02:17:02.924Z,100.00
2022-09-29T02:19:54.002Z,100.00
2022-09-29T02:22:40.410Z,100.00
2022-09-29T02:25:25.697Z,100.00
2022-09-29T02:28:13.982Z,100.00
2022-09-29T02:30:59.970Z,100.00
2022-09-29T02:33:45.179Z,100.00
2022-09-29T02:36:42.361Z,100.00
2022-09-29T02:39:49.078Z,100.00
2022-09-29T02:42:46.685Z,100.00
2022-09-29T02:45:38.357Z,100.00
2022-09-29T02:48:34.171Z,100.00
2022-09-29T02:51:21.130Z,100.00
2022-09-29T02:54:09.142Z,100.00
2022-09-29T02:57:15.395Z,100.00
2022-09-29T03:00:00.277Z,100.00
2022-09-29T03:02:45.757Z,100.00
2022-09-29T03:05:30.754Z,100.00
2022-09-29T03:08:15.636Z,100.00
2022-09-29T03:11:00.619Z,100.00
2022-09-29T03:13:45.561Z,100.00
2022-09-29T03:16:30.453Z,100.00
2022-09-29T03:19:15.927Z,100.00
2022-09-29T03:22:01.336Z,100.00
2022-09-29T03:24:46.355Z,100.00
2022-09-29T03:27:31.169Z,100.00
2022-09-29T03:30:16.630Z,100.00
2022-09-29T03:33:02.012Z,100.00
2022-09-29T03:35:47.523Z,100.00
2022-09-29T03:38:33.287Z,100.00
2022-09-29T03:41:18.494Z,100.00
2022-09-29T03:44:04.244Z,100.00
2022-09-29T03:46:49.537Z,100.00
2022-09-29T03:49:34.744Z,100.00
2022-09-29T03:52:19.913Z,100.00
2022-09-29T03:55:05.538Z,100.00
2022-09-29T03:57:50.709Z,100.00
2022-09-29T04:00:39.507Z,100.00
2022-09-29T04:03:24.492Z,100.00
2022-09-29T04:06:09.719Z,100.00
2022-09-29T04:08:54.616Z,100.00
2022-09-29T04:11:39.463Z,100.00
2022-09-29T04:14:24.312Z,100.00
2022-09-29T04:17:09.731Z,100.00
2022-09-29T04:19:54.696Z,100.00
2022-09-29T04:22:39.779Z,100.00
2022-09-29T04:25:24.815Z,100.00
2022-09-29T04:28:09.935Z,100.00
2022-09-29T04:30:54.875Z,100.00
2022-09-29T04:33:39.642Z,100.00
2022-09-29T04:36:24.532Z,100.00
2022-09-29T04:39:09.466Z,100.00
2022-09-29T04:41:54.698Z,100.00
2022-09-29T04:44:39.777Z,100.00
2022-09-29T04:47:24.982Z,100.00
2022-09-29T04:50:09.968Z,100.00
2022-09-29T04:52:54.821Z,100.00
2022-09-29T04:55:39.790Z,100.00
2022-09-29T04:58:24.749Z,100.00
2022-09-29T05:01:11.974Z,100.00
2022-09-29T05:03:57.649Z,100.00
2022-09-29T05:06:42.789Z,100.00
2022-09-29T05:09:32.396Z,100.00
2022-09-29T05:12:18.449Z,100.00
2022-09-29T05:15:04.303Z,100.00
2022-09-29T05:17:49.213Z,100.00
2022-09-29T05:20:40.062Z,100.00
2022-09-29T05:23:30.370Z,100.00
2022-09-29T05:26:15.438Z,100.00
2022-09-29T05:29:00.739Z,100.00
2022-09-29T05:31:45.643Z,100.00
2022-09-29T05:34:31.112Z,100.00
2022-09-29T05:37:16.117Z,100.00
2022-09-29T05:40:01.337Z,100.00
2022-09-29T05:42:46.659Z,100.00
2022-09-29T05:45:31.650Z,100.00
2022-09-29T05:48:16.946Z,100.00
2022-09-29T05:51:08.795Z,100.00
2022-09-29T05:53:54.248Z,100.00
2022-09-29T05:56:43.117Z,100.00
2022-09-29T05:59:30.591Z,100.00
2022-09-29T06:02:16.133Z,100.00
2022-09-29T06:05:01.318Z,100.00
2022-09-29T06:07:46.430Z,100.00
2022-09-29T06:10:31.983Z,100.00
2022-09-29T06:13:17.301Z,100.00
2022-09-29T06:16:02.560Z,100.00
2022-09-29T06:18:48.199Z,100.00
2022-09-29T06:21:33.259Z,100.00
2022-09-29T06:24:18.922Z,100.00
2022-09-29T06:27:03.975Z,100.00
2022-09-29T06:29:49.254Z,100.00
2022-09-29T06:32:34.837Z,100.00
2022-09-29T06:35:20.346Z,100.00
2022-09-29T06:38:05.621Z,100.00
2022-09-29T06:40:51.320Z,100.00
2022-09-29T06:43:36.317Z,100.00
2022-09-29T06:46:21.721Z,100.00
2022-09-29T06:49:06.801Z,100.00
2022-09-29T06:51:52.229Z,100.00
2022-09-29T06:54:37.403Z,100.00
2022-09-29T06:57:22.283Z,100.00
2022-09-29T07:00:08.176Z,100.00
2022-09-29T07:02:53.432Z,100.00
2022-09-29T07:05:38.769Z,100.00
2022-09-29T07:08:24.097Z,100.00
2022-09-29T07:11:10.477Z,100.00
2022-09-29T07:13:55.498Z,100.00
2022-09-29T07:16:40.836Z,100.00
2022-09-29T07:19:26.087Z,100.00
2022-09-29T07:22:11.434Z,100.00
2022-09-29T07:24:56.315Z,100.00
2022-09-29T07:27:41.953Z,100.00
2022-09-29T07:30:37.171Z,99.06
2022-09-29T07:33:35.628Z,99.52
2022-09-29T07:36:23.876Z,98.50
2022-09-29T07:39:08.941Z,96.67
2022-09-29T07:41:53.892Z,95.98
2022-09-29T07:44:38.823Z,94.62
2022-09-29T07:47:23.797Z,92.92
2022-09-29T07:50:09.114Z,92.33
2022-09-29T07:52:54.155Z,93.15
2022-09-29T07:55:39.614Z,91.77
2022-09-29T07:58:24.768Z,90.96
2022-09-29T08:01:11.601Z,87.42
2022-09-29T08:03:57.214Z,85.84
2022-09-29T08:06:42.422Z,85.17
2022-09-29T08:09:37.721Z,85.82
2022-09-29T08:12:31.833Z,84.54
2022-09-29T08:15:23.950Z,84.20
2022-09-29T08:18:09.399Z,83.40
2022-09-29T08:20:55.288Z,85.68
2022-09-29T08:23:43.485Z,89.80
2022-09-29T08:26:40.043Z,90.66
2022-09-29T08:29:30.845Z,88.47
2022-09-29T08:32:20.768Z,86.29
2022-09-29T08:35:06.116Z,86.41
2022-09-29T08:37:53.837Z,85.51
2022-09-29T08:40:38.971Z,86.22
2022-09-29T08:43:35.155Z,84.59
2022-09-29T08:46:36.202Z,83.92
2022-09-29T08:49:37.089Z,84.58
2022-09-29T08:52:26.390Z,86.53
2022-09-29T08:55:21.626Z,89.01
2022-09-29T08:58:11.585Z,92.16
2022-09-29T09:01:02.824Z,93.19
2022-09-29T09:04:00.517Z,94.16
2022-09-29T09:07:06.477Z,94.19
2022-09-29T09:10:09.002Z,95.03
2022-09-29T09:13:12.998Z,95.49
2022-09-29T09:16:13.126Z,95.01
2022-09-29T09:19:26.447Z,92.63
2022-09-29T09:22:19.914Z,95.24
2022-09-29T09:25:19.402Z,95.10
2022-09-29T09:28:13.888Z,95.31
2022-09-29T09:31:35.572Z,91.88
2022-09-29T09:34:39.634Z,92.07
2022-09-29T09:37:39.346Z,93.34
2022-09-29T09:40:27.522Z,92.94
2022-09-29T09:43:18.079Z,92.78
2022-09-29T09:46:34.365Z,91.00
2022-09-29T09:49:35.573Z,92.92
2022-09-29T09:53:01.908Z,89.37
2022-09-29T09:56:01.019Z,88.76
2022-09-29T09:59:01.766Z,90.22
2022-09-29T10:01:47.143Z,90.60
2022-09-29T10:04:32.765Z,88.29
2022-09-29T10:07:20.794Z,89.63
2022-09-29T10:10:16.595Z,88.47
2022-09-29T10:13:11.971Z,90.00
2022-09-29T10:16:19.728Z,88.59
2022-09-29T10:19:05.207Z,86.47
2022-09-29T10:21:51.358Z,87.93
2022-09-29T10:24:36.737Z,86.23
2022-09-29T10:27:24.644Z,86.46
2022-09-29T10:30:22.201Z,88.17
2022-09-29T10:33:15.186Z,87.04
2022-09-29T10:36:08.504Z,84.53
2022-09-29T10:38:54.269Z,85.54
2022-09-29T10:41:51.292Z,86.40
2022-09-29T10:44:39.259Z,86.41
2022-09-29T10:47:24.613Z,83.74
2022-09-29T10:50:13.267Z,82.11
2022-09-29T10:53:01.512Z,80.85
2022-09-29T10:55:54.437Z,81.57
2022-09-29T10:58:52.548Z,78.94
2022-09-29T11:01:49.030Z,79.92
2022-09-29T11:04:35.077Z,79.37
2022-09-29T11:07:20.262Z,78.91
2022-09-29T11:10:26.028Z,80.51
2022-09-29T11:13:20.356Z,81.35
2022-09-29T11:16:15.997Z,78.39
2022-09-29T11:19:06.107Z,78.42
2022-09-29T11:21:51.702Z,79.98
2022-09-29T11:24:36.560Z,80.23
2022-09-29T11:27:43.271Z,78.89
2022-09-29T11:30:53.074Z,79.04
2022-09-29T11:34:06.005Z,76.81
2022-09-29T11:37:22.076Z,80.14
2022-09-29T11:40:33.214Z,79.21
2022-09-29T11:43:27.629Z,78.55
2022-09-29T11:46:27.691Z,75.41
2022-09-29T11:49:27.860Z,80.69
2022-09-29T11:52:30.977Z,77.71
2022-09-29T11:55:40.346Z,74.48
2022-09-29T11:59:12.902Z,75.77
2022-09-29T12:02:18.175Z,77.92
2022-09-29T12:05:29.330Z,75.88
2022-09-29T12:08:36.213Z,72.90
2022-09-29T12:15:07.832Z,71.15
2022-09-29T12:17:57.741Z,71.10
2022-09-29T12:20:46.952Z,68.67
2022-09-29T12:23:34.636Z,68.42
2022-09-29T12:26:23.505Z,71.16
2022-09-29T12:29:23.138Z,71.68
2022-09-29T12:32:30.267Z,71.77
2022-09-29T12:35:20.951Z,73.82
2022-09-29T12:38:27.862Z,73.94
2022-09-29T12:41:23.566Z,73.41
2022-09-29T12:44:23.132Z,72.91
2022-09-29T12:47:20.069Z,75.48
2022-09-29T12:50:17.889Z,75.45
2022-09-29T12:53:22.373Z,70.62
2022-09-29T12:56:18.724Z,61.95
2022-09-29T12:59:20.679Z,61.83
2022-09-29T13:02:56.952Z,62.31
2022-09-29T13:06:03.517Z,62.19
2022-09-29T13:09:07.754Z,59.86
2022-09-29T13:12:18.647Z,58.80
2022-09-29T13:15:23.050Z,60.25
2022-09-29T13:18:14.389Z,56.60
2022-09-29T13:24:34.930Z,58.79
2022-09-29T13:27:33.624Z,59.98
2022-09-29T13:30:22.495Z,61.74
2022-09-29T13:33:15.734Z,58.00
2022-09-29T13:36:01.884Z,59.63
2022-09-29T13:38:53.315Z,59.36
2022-09-29T13:41:38.640Z,61.33
2022-09-29T13:44:26.506Z,63.37
2022-09-29T13:47:32.963Z,64.84
2022-09-29T13:51:01.773Z,66.11
2022-09-29T13:54:27.781Z,67.86
2022-09-29T13:57:12.732Z,66.42
2022-09-29T13:59:57.448Z,64.49
2022-09-29T14:03:00.161Z,62.14
2022-09-29T14:05:47.023Z,63.95
2022-09-29T14:08:40.892Z,65.36
2022-09-29T14:11:34.275Z,65.24
2022-09-29T14:14:30.491Z,64.05
2022-09-29T14:17:15.474Z,61.77
2022-09-29T14:20:30.839Z,61.72
2022-09-29T14:23:44.455Z,61.87
2022-09-29T14:26:46.445Z,58.63
2022-09-29T14:29:35.311Z,60.01
2022-09-29T14:32:32.667Z,61.96
2022-09-29T14:35:24.840Z,66.16
2022-09-29T14:38:15.712Z,60.75
2022-09-29T14:41:22.338Z,63.71
2022-09-29T14:44:19.614Z,60.82
2022-09-29T14:47:22.077Z,61.15
2022-09-29T14:50:24.687Z,62.59
2022-09-29T14:53:38.744Z,63.61
2022-09-29T14:56:49.422Z,63.29
2022-09-29T14:59:57.386Z,62.12
2022-09-29T15:02:55.440Z,61.11
2022-09-29T15:05:45.329Z,59.54
2022-09-29T15:08:31.854Z,60.88
2022-09-29T15:11:31.576Z,63.29
2022-09-29T15:14:41.677Z,61.51
2022-09-29T15:17:43.146Z,65.77
2022-09-29T15:20:53.155Z,64.52
2022-09-29T15:24:16.814Z,65.29
2022-09-29T15:27:06.223Z,62.94
2022-09-29T15:29:55.912Z,63.42
2022-09-29T15:32:41.215Z,62.15
2022-09-29T15:35:26.637Z,63.89
2022-09-29T15:38:24.377Z,62.78
2022-09-29T15:41:12.800Z,66.11
2022-09-29T15:44:13.898Z,64.66
2022-09-29T15:47:00.301Z,63.18
2022-09-29T15:49:52.765Z,64.28
2022-09-29T15:52:38.112Z,63.79
2022-09-29T15:55:24.746Z,64.99
2022-09-29T15:58:25.337Z,62.27
2022-09-29T16:01:13.929Z,63.96
2022-09-29T16:04:00.936Z,63.80
2022-09-29T16:06:46.080Z,62.43
2022-09-29T16:09:31.139Z,62.53
2022-09-29T16:12:19.321Z,61.21
2022-09-29T16:15:05.835Z,59.83
2022-09-29T16:17:51.392Z,56.15
2022-09-29T16:20:36.943Z,56.93
2022-09-29T16:23:25.586Z,63.75
2022-09-29T16:26:15.693Z,67.47
2022-09-29T16:29:10.153Z,67.84
2022-09-29T16:31:56.542Z,69.42
2022-09-29T16:34:41.853Z,74.27
2022-09-29T16:37:27.009Z,76.87
2022-09-29T16:40:18.969Z,73.98
2022-09-29T16:43:04.195Z,72.43
2022-09-29T16:45:51.286Z,70.07
2022-09-29T16:48:41.677Z,71.14
2022-09-29T16:51:38.779Z,72.91
2022-09-29T16:54:28.422Z,77.28
2022-09-29T16:57:22.536Z,83.92
2022-09-29T17:00:12.357Z,82.98
2022-09-29T17:02:57.812Z,82.75
2022-09-29T17:05:45.750Z,85.20
2022-09-29T17:08:31.257Z,81.35
2022-09-29T17:11:16.551Z,79.85
2022-09-29T17:14:01.436Z,81.45
2022-09-29T17:16:46.348Z,81.98
2022-09-29T17:19:31.594Z,82.95
2022-09-29T17:22:31.238Z,84.02
2022-09-29T17:25:16.515Z,83.55
2022-09-29T17:28:01.920Z,86.44
2022-09-29T17:30:48.367Z,86.76
2022-09-29T17:33:33.650Z,88.90
2022-09-29T17:36:19.720Z,89.37
2022-09-29T17:39:04.848Z,88.51
2022-09-29T17:41:49.994Z,90.84
2022-09-29T17:44:34.884Z,93.37
2022-09-29T17:47:28.815Z,97.32
2022-09-29T17:50:22.974Z,98.11
2022-09-29T17:53:08.127Z,97.65
2022-09-29T17:55:56.288Z,96.10
2022-09-29T17:58:41.579Z,96.78
2022-09-29T18:01:26.670Z,97.66
2022-09-29T18:04:11.710Z,98.84
2022-09-29T18:06:56.728Z,98.73
2022-09-29T18:09:42.133Z,97.43
2022-09-29T18:12:27.501Z,96.79
2022-09-29T18:15:12.494Z,96.26
2022-09-29T18:18:00.954Z,96.09
2022-09-29T18:20:46.370Z,95.44
2022-09-29T18:23:31.727Z,94.99
2022-09-29T18:26:16.773Z,96.85
2022-09-29T18:29:13.924Z,98.29
2022-09-29T18:31:59.691Z,100.00
2022-09-29T18:34:45.048Z,100.00
2022-09-29T18:37:30.051Z,100.00
2022-09-29T18:40:15.452Z,100.00
2022-09-29T18:43:00.572Z,100.00
2022-09-29T18:45:45.938Z,100.00
2022-09-29T18:48:30.965Z,100.00
2022-09-29T18:51:19.839Z,100.00
2022-09-29T18:54:06.760Z,100.00
2022-09-29T18:56:54.636Z,100.00
2022-09-29T18:59:40.144Z,100.00
2022-09-29T19:02:25.426Z,100.00
2022-09-29T19:05:13.674Z,100.00
2022-09-29T19:08:01.628Z,100.00
2022-09-29T19:10:49.155Z,100.00
2022-09-29T19:13:33.997Z,100.00
2022-09-29T19:16:18.942Z,100.00
2022-09-29T19:19:04.628Z,100.00
2022-09-29T19:21:49.634Z,100.00
2022-09-29T19:24:34.479Z,100.00
2022-09-29T19:27:20.919Z,100.00
2022-09-29T19:30:07.206Z,100.00
2022-09-29T19:32:53.315Z,100.00
2022-09-29T19:35:38.517Z,100.00
2022-09-29T19:38:23.884Z,100.00
2022-09-29T19:41:22.944Z,100.00
2022-09-29T19:44:08.400Z,100.00
2022-09-29T19:46:53.429Z,100.00
2022-09-29T19:49:38.440Z,100.00
2022-09-29T19:52:23.407Z,100.00
2022-09-29T19:55:08.430Z,100.00
2022-09-29T19:57:53.230Z,100.00
2022-09-29T20:00:38.892Z,100.00
2022-09-29T20:03:24.153Z,100.00
2022-09-29T20:06:09.295Z,100.00
2022-09-29T20:08:54.345Z,100.00
2022-09-29T20:11:39.794Z,100.00
2022-09-29T20:14:26.642Z,100.00
2022-09-29T20:17:11.869Z,100.00
2022-09-29T20:19:56.770Z,100.00
2022-09-29T20:22:41.836Z,100.00
2022-09-29T20:25:27.119Z,100.00
2022-09-29T20:28:15.427Z,100.00
2022-09-29T20:31:01.198Z,100.00
2022-09-29T20:33:50.939Z,100.00
2022-09-29T20:36:36.265Z,100.00
2022-09-29T20:39:22.182Z,100.00
2022-09-29T20:42:07.279Z,100.00
2022-09-29T20:44:52.616Z,100.00
2022-09-29T20:47:37.988Z,100.00
2022-09-29T20:50:23.196Z,100.00
2022-09-29T20:53:08.126Z,100.00
2022-09-29T20:56:08.759Z,100.00
2022-09-29T20:58:53.644Z,100.00
2022-09-29T21:01:38.844Z,100.00
2022-09-29T21:04:24.148Z,100.00
2022-09-29T21:07:09.517Z,100.00
2022-09-29T21:09:54.498Z,100.00
2022-09-29T21:12:39.731Z,100.00
2022-09-29T21:15:24.687Z,100.00
2022-09-29T21:18:09.923Z,100.00
2022-09-29T21:20:56.324Z,100.00
2022-09-29T21:23:42.592Z,100.00
2022-09-29T21:26:28.145Z,100.00
2022-09-29T21:29:17.551Z,100.00
2022-09-29T21:32:02.341Z,100.00
2022-09-29T21:34:47.301Z,100.00
2022-09-29T21:37:32.309Z,100.00
2022-09-29T21:40:17.392Z,100.00
2022-09-29T21:43:02.528Z,100.00
2022-09-29T21:45:47.329Z,100.00
2022-09-29T21:48:33.989Z,100.00
2022-09-29T21:51:24.994Z,100.00
2022-09-29T21:54:13.358Z,100.00
2022-09-29T21:56:58.404Z,100.00
2022-09-29T21:59:43.363Z,100.00
2022-09-29T22:02:28.958Z,100.00
2022-09-29T22:05:14.312Z,100.00
2022-09-29T22:07:59.244Z,100.00
2022-09-29T22:10:48.515Z,100.00
2022-09-29T22:13:33.903Z,100.00
2022-09-29T22:16:20.766Z,100.00
2022-09-29T22:19:22.378Z,100.00
2022-09-29T22:22:08.411Z,100.00
2022-09-29T22:24:53.375Z,100.00
2022-09-29T22:27:38.221Z,100.00
2022-09-29T22:30:23.492Z,100.00
2022-09-29T22:33:08.341Z,100.00
2022-09-29T22:35:57.447Z,100.00
2022-09-29T22:38:42.748Z,100.00
2022-09-29T22:41:27.856Z,100.00
2022-09-29T22:44:12.959Z,100.00
2022-09-29T22:46:58.070Z,100.00
2022-09-29T22:49:43.190Z,100.00
2022-09-29T22:52:28.112Z,100.00
2022-09-29T22:55:13.061Z,100.00
2022-09-29T22:57:58.330Z,100.00
2022-09-29T23:00:43.279Z,100.00
2022-09-29T23:03:28.162Z,100.00
2022-09-29T23:06:13.814Z,100.00
2022-09-29T23:08:58.667Z,100.00
2022-09-29T23:11:44.123Z,100.00
2022-09-29T23:14:29.112Z,100.00
2022-09-29T23:17:13.882Z,100.00
2022-09-29T23:19:59.743Z,100.00
2022-09-29T23:22:44.601Z,100.00
2022-09-29T23:25:29.656Z,100.00
2022-09-29T23:28:14.529Z,100.00
2022-09-29T23:31:07.285Z,100.00
2022-09-29T23:33:54.146Z,100.00
2022-09-29T23:36:39.132Z,100.00
2022-09-29T23:39:24.611Z,100.00
2022-09-29T23:42:09.891Z,100.00
2022-09-29T23:44:55.184Z,100.00
2022-09-29T23:47:40.225Z,100.00
2022-09-29T23:50:25.205Z,100.00
2022-09-29T23:53:11.434Z,100.00
2022-09-29T23:55:56.347Z,100.00
2022-09-29T23:58:41.268Z,100.00
